Whitetop, Virginia
Current Conditions -  °F | °C
As of 8:55 AM on Monday 22 Dec 2014 (Local Time) from KGEV Reporting Station
Drizzle Drizzle  
Wind Chill: 33°   Ceiling: 300
Heat Index: 33°   Visibility: 0.25mi
Dew Point: 33°   Wind: 0mph
Humidity: 100%   Direction: NA
Pressure: 30.09"   Gusts: NA
Location:  36.6°N, 81.63°W
Report Text: KGEV 221355Z AUTO 00000KT 1/4SM DZ OVC003 01/01 A3009 RMK AO2 T00080008
Loading
Personal Weather Stations






























Interactive Weather Map New forecast layout! Learn more

10-Day Weather Forecast

Advertisements
Track Severe Weather on mobile